This is the latest recevied weather packets stored in our database for station/object DH4BS-10. If no packets are shown the sender has not sent any weather packets the latest 1 day(s).
| Time | Temp. | Humidity | Pressure | Rain* | Wind** | Luminosity | Snow |
|---|---|---|---|---|---|---|---|
| 1777767238 | 26.67° C | 35% | 1015.2 hPa | - | - | - | - |
| 1777763637 | 27.78° C | 35% | 1016 hPa | - | - | - | - |
| 1777760037 | 28.89° C | 35% | 1015.7 hPa | - | - | - | - |
| 1777756437 | 30.56° C | 35% | 1015.9 hPa | - | - | - | - |
| 1777752837 | 31.67° C | 35% | 1016.2 hPa | - | - | - | - |
| 1777749242 | 33.33° C | 35% | 1016 hPa | - | - | - | - |
| 1777745642 | 35° C | 34% | 1016 hPa | - | - | - | - |
| 1777742042 | 35.56° C | 34% | 1016.1 hPa | - | - | - | - |
| 1777738442 | 35.56° C | 33% | 1016.7 hPa | - | - | - | - |
| 1777734842 | 35° C | 34% | 1017.3 hPa | - | - | - | - |
| 1777731241 | 33.89° C | 33% | 1017.9 hPa | - | - | - | - |
| 1777727641 | 32.22° C | 34% | 1018.4 hPa | - | - | - | - |
| 1777724041 | 30.56° C | 35% | 1019.3 hPa | - | - | - | - |
| 1777720441 | 28.89° C | 35% | 1019.9 hPa | - | - | - | - |
| 1777716841 | 26.67° C | 35% | 1020.7 hPa | - | - | - | - |
| 1777713241 | 25° C | 35% | 1021.3 hPa | - | - | - | - |
| 1777709640 | 23.33° C | 35% | 1021.6 hPa | - | - | - | - |
| 1777706040 | 21.67° C | 35% | 1021.9 hPa | - | - | - | - |
| 1777702440 | 20.56° C | 35% | 1022.1 hPa | - | - | - | - |
| 1777698840 | 20° C | 36% | 1022.5 hPa | - | - | - | - |
| 1777695240 | 20° C | 36% | 1022.6 hPa | - | - | - | - |
| 1777691640 | 21.11° C | 36% | 1022.7 hPa | - | - | - | - |
| 1777688039 | 21.67° C | 35% | 1023.3 hPa | - | - | - | - |
| 1777684439 | 22.78° C | 35% | 1023.5 hPa | - | - | - | - |
* Rain since midnight (hover to see other rain measurements)
** Current wind speed in m/s (hover to see current wind gust speed)